createdAt,value
2019-03-20T00:00:16.952Z,-2.45
2019-03-20T00:01:16.934Z,-2.47
2019-03-20T00:02:16.929Z,-2.53
2019-03-20T00:03:16.947Z,-2.54
2019-03-20T00:04:16.903Z,-2.56
2019-03-20T00:05:16.907Z,-2.58
2019-03-20T00:06:16.883Z,-2.54
2019-03-20T00:07:16.870Z,-2.63
2019-03-20T00:08:16.889Z,-2.54
2019-03-20T00:09:16.851Z,-2.53
2019-03-20T00:10:16.865Z,-2.60
2019-03-20T00:11:16.838Z,-2.50
2019-03-20T00:12:16.829Z,-2.42
2019-03-20T00:13:16.841Z,-2.45
2019-03-20T00:14:16.803Z,-2.50
2019-03-20T00:15:16.971Z,-2.50
2019-03-20T00:16:16.807Z,-2.48
2019-03-20T00:17:16.776Z,-2.45
2019-03-20T00:18:16.799Z,-2.48
2019-03-20T00:19:16.751Z,-2.47
2019-03-20T00:20:16.744Z,-2.40
2019-03-20T00:21:16.745Z,-2.47
2019-03-20T00:22:16.729Z,-2.56
2019-03-20T00:23:16.755Z,-2.56
2019-03-20T00:24:16.700Z,-2.63
2019-03-20T00:25:16.695Z,-2.58
2019-03-20T00:26:16.679Z,-2.61
2019-03-20T00:27:16.700Z,-2.64
2019-03-20T00:28:16.692Z,-2.68
2019-03-20T00:29:16.669Z,-2.69
2019-03-20T00:30:16.654Z,-2.72
2019-03-20T00:31:16.637Z,-2.76
2019-03-20T00:32:16.624Z,-2.79
2019-03-20T00:33:16.636Z,-2.78
2019-03-20T00:34:16.602Z,-2.76
2019-03-20T00:35:16.598Z,-2.82
2019-03-20T00:36:16.598Z,-2.86
2019-03-20T00:37:16.576Z,-2.89
2019-03-20T00:38:16.602Z,-2.93
2019-03-20T00:39:16.562Z,-3.04
2019-03-20T00:40:16.541Z,-3.05
2019-03-20T00:41:16.529Z,-3.05
2019-03-20T00:42:16.522Z,-3.10
2019-03-20T00:43:16.540Z,-3.18
2019-03-20T00:44:16.504Z,-3.08
2019-03-20T00:45:16.520Z,-3.02
2019-03-20T00:46:16.487Z,-3.02
2019-03-20T00:47:16.475Z,-3.10
2019-03-20T00:48:16.486Z,-3.14
2019-03-20T00:49:16.457Z,-3.05
2019-03-20T00:50:16.440Z,-3.07
2019-03-20T00:51:16.457Z,-3.08
2019-03-20T00:52:16.429Z,-3.00
2019-03-20T00:53:16.418Z,-3.22
2019-03-20T00:54:16.431Z,-3.20
2019-03-20T00:55:16.424Z,-3.25
2019-03-20T00:56:16.387Z,-3.25
2019-03-20T00:57:16.378Z,-3.29
2019-03-20T00:58:16.369Z,-3.29
2019-03-20T00:59:16.387Z,-3.26
2019-03-20T01:00:16.350Z,-3.22
2019-03-20T01:01:16.349Z,-3.26
2019-03-20T01:02:16.328Z,-3.20
2019-03-20T01:03:16.320Z,-3.02
2019-03-20T01:04:16.331Z,-3.14
2019-03-20T01:05:16.313Z,-3.17
2019-03-20T01:06:16.305Z,-3.20
2019-03-20T01:07:16.280Z,-3.26
2019-03-20T01:08:16.276Z,-3.26
2019-03-20T01:09:16.280Z,-3.25
2019-03-20T01:10:16.250Z,-3.39
2019-03-20T01:11:16.235Z,-3.36
2019-03-20T01:12:17.711Z,-3.35
2019-03-20T01:13:16.245Z,-3.32
2019-03-20T01:14:16.239Z,-3.38
2019-03-20T01:15:16.203Z,-3.26
2019-03-20T01:16:16.188Z,-3.23
2019-03-20T01:17:16.174Z,-3.22
2019-03-20T01:18:16.172Z,-3.25
2019-03-20T01:19:16.181Z,-3.29
2019-03-20T01:20:16.172Z,-3.44
2019-03-20T01:21:16.138Z,-3.44
2019-03-20T01:22:16.130Z,-3.44
2019-03-20T01:23:16.132Z,-3.54
2019-03-20T01:24:16.135Z,-3.50
2019-03-20T01:25:16.096Z,-3.53
2019-03-20T01:26:16.087Z,-3.57
2019-03-20T01:27:16.076Z,-3.57
2019-03-20T01:28:16.082Z,-3.56
2019-03-20T01:29:16.093Z,-3.47
2019-03-20T01:30:16.074Z,-3.56
2019-03-20T01:31:16.728Z,-3.50
2019-03-20T01:32:16.038Z,-3.71
2019-03-20T01:33:16.037Z,-3.65
2019-03-20T01:34:16.031Z,-3.61
2019-03-20T01:35:23.445Z,-3.61
2019-03-20T01:36:17.009Z,-3.68
2019-03-20T01:37:15.995Z,-3.54
2019-03-20T01:38:15.967Z,-3.53
2019-03-20T01:39:15.983Z,-3.56
2019-03-20T01:40:15.947Z,-3.49
2019-03-20T01:41:15.944Z,-3.50
2019-03-20T01:42:15.928Z,-3.57
2019-03-20T01:43:15.925Z,-3.64
2019-03-20T01:44:15.943Z,-3.64
2019-03-20T01:45:16.050Z,-3.68
2019-03-20T01:46:15.928Z,-3.71
2019-03-20T01:47:15.878Z,-3.61
2019-03-20T01:48:15.874Z,-3.64
2019-03-20T01:49:15.882Z,-3.54
2019-03-20T01:50:15.855Z,-3.68
2019-03-20T01:51:15.839Z,-3.50
2019-03-20T01:52:15.983Z,-3.56
2019-03-20T01:53:15.847Z,-3.61
2019-03-20T01:54:16.756Z,-3.60
2019-03-20T01:55:15.805Z,-3.51
2019-03-20T01:56:15.792Z,-3.53
2019-03-20T01:57:15.909Z,-3.50
2019-03-20T01:58:15.780Z,-3.57
2019-03-20T01:59:15.781Z,-3.46
2019-03-20T02:00:15.761Z,-3.54
2019-03-20T02:01:15.786Z,-3.50
2019-03-20T02:02:15.738Z,-3.49
2019-03-20T02:03:15.722Z,-3.49
2019-03-20T02:04:15.717Z,-3.47
2019-03-20T02:05:15.719Z,-3.50
2019-03-20T02:06:16.266Z,-3.43
2019-03-20T02:07:15.724Z,-3.47
2019-03-20T02:08:15.786Z,-3.39
2019-03-20T02:09:15.674Z,-3.54
2019-03-20T02:10:15.660Z,-3.50
2019-03-20T02:11:15.677Z,-3.51
2019-03-20T02:12:15.646Z,-3.64
2019-03-20T02:13:15.625Z,-3.70
2019-03-20T02:14:15.626Z,-3.70
2019-03-20T02:15:15.615Z,-3.75
2019-03-20T02:16:15.593Z,-3.84
2019-03-20T02:17:15.619Z,-3.76
2019-03-20T02:18:15.595Z,-3.72
2019-03-20T02:19:15.562Z,-3.86
2019-03-20T02:20:15.557Z,-3.70
2019-03-20T02:21:15.555Z,-3.80
2019-03-20T02:22:15.538Z,-3.75
2019-03-20T02:23:15.678Z,-3.80
2019-03-20T02:24:15.840Z,-3.86
2019-03-20T02:25:15.668Z,-3.90
2019-03-20T02:26:15.546Z,-3.93
2019-03-20T02:27:15.553Z,-4.01
2019-03-20T02:28:15.511Z,-3.99
2019-03-20T02:29:15.513Z,-4.12
2019-03-20T02:30:15.605Z,-3.98
2019-03-20T02:31:15.497Z,-4.07
2019-03-20T02:32:15.508Z,-4.02
2019-03-20T02:33:15.558Z,-4.01
2019-03-20T02:34:15.472Z,-4.02
2019-03-20T02:35:15.466Z,-4.01
2019-03-20T02:36:15.518Z,-4.02
2019-03-20T02:37:15.438Z,-4.04
2019-03-20T02:38:15.395Z,-4.20
2019-03-20T02:39:15.456Z,-4.22
2019-03-20T02:40:15.369Z,-4.25
2019-03-20T02:41:15.367Z,-4.20
2019-03-20T02:42:15.353Z,-4.20
2019-03-20T02:43:15.396Z,-4.09
2019-03-20T02:44:15.383Z,-4.14
2019-03-20T02:45:15.318Z,-4.14
2019-03-20T02:46:15.299Z,-4.07
2019-03-20T02:47:15.291Z,-4.08
2019-03-20T02:48:15.289Z,-4.20
2019-03-20T02:49:15.334Z,-4.19
2019-03-20T02:50:15.321Z,-4.07
2019-03-20T02:51:15.275Z,-4.05
2019-03-20T02:52:15.357Z,-4.08
2019-03-20T02:53:15.233Z,-4.19
2019-03-20T02:54:15.256Z,-4.20
2019-03-20T02:55:15.246Z,-4.14
2019-03-20T02:56:15.204Z,-4.07
2019-03-20T02:57:17.409Z,-4.01
2019-03-20T02:58:15.183Z,-4.02
2019-03-20T02:59:15.230Z,-4.08
2019-03-20T03:00:15.218Z,-3.99
2019-03-20T03:01:15.166Z,-4.19
2019-03-20T03:02:15.224Z,-4.11
2019-03-20T03:03:15.160Z,-4.23
2019-03-20T03:04:15.124Z,-4.26
2019-03-20T03:05:15.139Z,-4.22
2019-03-20T03:06:15.101Z,-4.28
2019-03-20T03:07:15.088Z,-4.36
2019-03-20T03:08:15.084Z,-4.33
2019-03-20T03:09:15.114Z,-4.33
2019-03-20T03:10:15.284Z,-4.36
2019-03-20T03:11:15.109Z,-4.37
2019-03-20T03:12:15.091Z,-4.40
2019-03-20T03:13:15.120Z,-4.47
2019-03-20T03:14:15.083Z,-4.43
2019-03-20T03:15:15.086Z,-4.48
2019-03-20T03:16:15.127Z,-4.48
2019-03-20T03:17:15.051Z,-4.61
2019-03-20T03:18:15.066Z,-4.62
2019-03-20T03:19:15.018Z,-4.55
2019-03-20T03:20:15.077Z,-4.59
2019-03-20T03:21:15.368Z,-4.65
2019-03-20T03:22:14.988Z,-4.65
2019-03-20T03:23:14.986Z,-4.75
2019-03-20T03:24:14.980Z,-4.66
2019-03-20T03:25:14.991Z,-4.62
2019-03-20T03:26:14.968Z,-4.75
2019-03-20T03:27:15.028Z,-4.76
2019-03-20T03:28:15.009Z,-4.64
2019-03-20T03:29:14.949Z,-4.66
2019-03-20T03:30:15.003Z,-4.76
2019-03-20T03:31:14.899Z,-4.77
2019-03-20T03:32:14.900Z,-4.82
2019-03-20T03:33:14.880Z,-4.71
2019-03-20T03:34:14.957Z,-4.85
2019-03-20T03:35:17.892Z,-4.75
2019-03-20T03:36:21.269Z,-4.68
2019-03-20T03:37:15.842Z,-4.59
2019-03-20T03:38:14.831Z,-4.55
2019-03-20T03:39:14.821Z,-4.64
2019-03-20T03:40:14.805Z,-4.65
2019-03-20T03:41:14.888Z,-4.62
2019-03-20T03:42:14.804Z,-4.55
2019-03-20T03:43:14.794Z,-4.61
2019-03-20T03:44:14.780Z,-4.57
2019-03-20T03:45:15.302Z,-4.62
2019-03-20T03:46:14.836Z,-4.59
2019-03-20T03:47:14.754Z,-4.54
2019-03-20T03:48:14.753Z,-4.46
2019-03-20T03:49:14.767Z,-4.38
2019-03-20T03:50:14.720Z,-4.46
2019-03-20T03:51:14.802Z,-4.57
2019-03-20T03:52:14.698Z,-4.58
2019-03-20T03:53:14.680Z,-4.59
2019-03-20T03:54:14.695Z,-4.66
2019-03-20T03:55:14.799Z,-4.64
2019-03-20T03:56:14.749Z,-4.75
2019-03-20T03:57:14.717Z,-4.76
2019-03-20T03:58:14.633Z,-4.76
2019-03-20T03:59:14.620Z,-4.80
2019-03-20T04:00:14.634Z,-4.82
2019-03-20T04:01:14.670Z,-4.75
2019-03-20T04:02:14.593Z,-4.71
2019-03-20T04:03:14.592Z,-4.69
2019-03-20T04:04:14.578Z,-4.75
2019-03-20T04:05:14.566Z,-4.68
2019-03-20T04:06:14.564Z,-4.68
2019-03-20T04:07:14.629Z,-4.66
2019-03-20T04:08:14.534Z,-4.64
2019-03-20T04:09:14.532Z,-4.66
2019-03-20T04:10:14.524Z,-4.79
2019-03-20T04:11:14.606Z,-4.76
2019-03-20T04:12:14.512Z,-4.76
2019-03-20T04:13:14.489Z,-4.75
2019-03-20T04:14:14.490Z,-4.86
2019-03-20T04:15:14.595Z,-4.87
2019-03-20T04:16:14.459Z,-4.89
2019-03-20T04:17:14.507Z,-4.86
2019-03-20T04:18:14.485Z,-4.80
2019-03-20T04:19:14.429Z,-4.86
2019-03-20T04:20:14.480Z,-4.83
2019-03-20T04:21:14.439Z,-4.85
2019-03-20T04:22:14.444Z,-4.98
2019-03-20T04:23:14.398Z,-4.97
2019-03-20T04:24:14.380Z,-5.01
2019-03-20T04:25:14.362Z,-5.05
2019-03-20T04:26:14.357Z,-5.01
2019-03-20T04:27:14.414Z,-5.07
2019-03-20T04:28:14.347Z,-5.04
2019-03-20T04:29:14.337Z,-5.16
2019-03-20T04:30:14.338Z,-5.11
2019-03-20T04:31:14.307Z,-5.07
2019-03-20T04:32:14.395Z,-5.04
2019-03-20T04:33:14.290Z,-5.12
2019-03-20T04:34:14.282Z,-5.16
2019-03-20T04:35:14.305Z,-5.12
2019-03-20T04:36:14.280Z,-5.16
2019-03-20T04:37:14.343Z,-5.22
2019-03-20T04:38:14.252Z,-5.12
2019-03-20T04:39:14.305Z,-5.16
2019-03-20T04:40:14.271Z,-5.16
2019-03-20T04:41:14.223Z,-5.25
2019-03-20T04:42:14.252Z,-5.22
2019-03-20T04:43:14.202Z,-5.27
2019-03-20T04:44:14.168Z,-5.31
2019-03-20T04:45:14.273Z,-5.33
2019-03-20T04:46:14.157Z,-5.38
2019-03-20T04:47:14.160Z,-5.37
2019-03-20T04:48:14.154Z,-5.37
2019-03-20T04:49:14.128Z,-5.37
2019-03-20T04:50:14.131Z,-5.41
2019-03-20T04:51:14.170Z,-5.45
2019-03-20T04:52:14.098Z,-5.45
2019-03-20T04:53:14.095Z,-5.44
2019-03-20T04:54:14.075Z,-5.45
2019-03-20T04:55:14.089Z,-5.47
2019-03-20T04:56:14.141Z,-5.47
2019-03-20T04:57:14.068Z,-5.52
2019-03-20T04:58:14.150Z,-5.51
2019-03-20T04:59:14.047Z,-5.44
2019-03-20T05:00:14.013Z,-5.40
2019-03-20T05:01:14.020Z,-5.40
2019-03-20T05:02:14.067Z,-5.23
2019-03-20T05:03:14.017Z,-5.23
2019-03-20T05:04:14.143Z,-5.14
2019-03-20T05:05:14.055Z,-5.16
2019-03-20T05:06:13.988Z,-5.14
2019-03-20T05:07:14.081Z,-5.12
2019-03-20T05:08:13.928Z,-5.19
2019-03-20T05:09:13.912Z,-5.25
2019-03-20T05:10:13.887Z,-5.23
2019-03-20T05:11:13.890Z,-5.31
2019-03-20T05:12:13.868Z,-5.37
2019-03-20T05:13:13.893Z,-5.35
2019-03-20T05:14:13.875Z,-5.31
2019-03-20T05:15:13.840Z,-5.33
2019-03-20T05:16:13.867Z,-5.38
2019-03-20T05:17:13.821Z,-5.41
2019-03-20T05:18:13.809Z,-5.40
2019-03-20T05:19:13.806Z,-5.37
2019-03-20T05:20:13.792Z,-5.27
2019-03-20T05:21:13.903Z,-5.11
2019-03-20T05:22:13.768Z,-5.12
2019-03-20T05:23:13.765Z,-5.05
2019-03-20T05:24:13.764Z,-5.03
2019-03-20T05:25:14.839Z,-4.89
2019-03-20T05:26:13.759Z,-4.75
2019-03-20T05:27:13.729Z,-4.59
2019-03-20T05:28:13.733Z,-4.62
2019-03-20T05:29:13.710Z,-4.75
2019-03-20T05:30:13.703Z,-4.69
2019-03-20T05:31:13.727Z,-4.77
2019-03-20T05:32:13.681Z,-4.77
2019-03-20T05:33:13.696Z,-4.80
2019-03-20T05:34:13.654Z,-4.82
2019-03-20T05:35:13.649Z,-4.93
2019-03-20T05:36:13.702Z,-4.95
2019-03-20T05:37:13.650Z,-4.86
2019-03-20T05:38:13.762Z,-4.83
2019-03-20T05:39:15.759Z,-4.87
2019-03-20T05:40:13.594Z,-4.77
2019-03-20T05:41:13.619Z,-4.79
2019-03-20T05:42:13.579Z,-4.82
2019-03-20T05:43:13.564Z,-4.80
2019-03-20T05:44:13.552Z,-4.83
2019-03-20T05:45:13.584Z,-4.71
2019-03-20T05:46:13.569Z,-4.77
2019-03-20T05:47:13.531Z,-4.80
2019-03-20T05:48:13.521Z,-4.82
2019-03-20T05:49:13.513Z,-4.89
2019-03-20T05:50:13.496Z,-4.82
2019-03-20T05:51:13.517Z,-4.83
2019-03-20T05:52:13.489Z,-4.75
2019-03-20T05:53:13.468Z,-4.65
2019-03-20T05:54:13.469Z,-4.58
2019-03-20T05:55:13.457Z,-4.50
2019-03-20T05:56:13.471Z,-4.33
2019-03-20T05:57:13.446Z,-4.22
2019-03-20T05:58:13.451Z,-4.11
2019-03-20T05:59:13.414Z,-4.04
2019-03-20T06:00:13.397Z,-3.99
2019-03-20T06:01:13.423Z,-3.90
2019-03-20T06:02:13.381Z,-3.87
2019-03-20T06:03:13.373Z,-3.72
2019-03-20T06:04:13.377Z,-3.72
2019-03-20T06:05:13.368Z,-3.49
2019-03-20T06:06:13.565Z,-3.39
2019-03-20T06:07:21.116Z,-3.29
2019-03-20T06:08:14.323Z,-3.18
2019-03-20T06:09:13.327Z,-3.05
2019-03-20T06:10:13.326Z,-2.81
2019-03-20T06:11:13.294Z,-2.57
2019-03-20T06:12:20.241Z,-2.53
2019-03-20T06:13:13.276Z,-2.40
2019-03-20T06:14:13.268Z,-2.28
2019-03-20T06:15:13.261Z,-2.14
2019-03-20T06:16:13.274Z,-2.11
2019-03-20T06:17:13.232Z,-2.00
2019-03-20T06:18:13.237Z,-1.93
2019-03-20T06:19:13.211Z,-1.85
2019-03-20T06:20:13.204Z,-1.72
2019-03-20T06:21:13.222Z,-1.60
2019-03-20T06:22:13.195Z,-1.46
2019-03-20T06:23:13.181Z,-1.35
2019-03-20T06:24:13.163Z,-1.30
2019-03-20T06:25:13.165Z,-1.17
2019-03-20T06:26:13.741Z,-1.02
2019-03-20T06:27:13.142Z,-1.05
2019-03-20T06:28:13.145Z,-0.97
2019-03-20T06:29:13.123Z,-0.92
2019-03-20T06:30:13.110Z,-0.70
2019-03-20T06:31:13.158Z,-0.63
2019-03-20T06:32:13.089Z,-0.51
2019-03-20T06:33:13.082Z,-0.39
2019-03-20T06:34:13.062Z,-0.30
2019-03-20T06:35:13.065Z,-0.29
2019-03-20T06:36:13.046Z,-0.09
2019-03-20T06:37:13.081Z,0.03
2019-03-20T06:38:13.020Z,0.12
2019-03-20T06:39:13.014Z,0.20
2019-03-20T06:40:12.998Z,0.24
2019-03-20T06:41:13.026Z,0.25
2019-03-20T06:42:12.982Z,0.45
2019-03-20T06:43:12.975Z,0.58
2019-03-20T06:44:12.967Z,0.68
2019-03-20T06:45:12.969Z,0.67
2019-03-20T06:46:12.983Z,0.79
2019-03-20T06:47:12.936Z,0.89
2019-03-20T06:48:12.929Z,1.01
2019-03-20T06:49:12.934Z,1.04
2019-03-20T06:50:12.966Z,1.19
2019-03-20T06:51:12.926Z,1.25
2019-03-20T06:52:12.941Z,1.60
2019-03-20T06:53:12.883Z,1.60
2019-03-20T06:54:13.728Z,1.58
2019-03-20T06:55:12.885Z,1.57
2019-03-20T06:56:12.861Z,1.54
2019-03-20T06:57:12.870Z,1.60
2019-03-20T06:58:12.832Z,1.64
2019-03-20T06:59:12.817Z,1.80
2019-03-20T07:00:12.803Z,1.90
2019-03-20T07:01:12.792Z,2.13
2019-03-20T07:02:12.801Z,2.16
2019-03-20T07:03:12.773Z,2.33
2019-03-20T07:04:12.765Z,2.52
2019-03-20T07:05:12.757Z,2.55
2019-03-20T07:06:12.810Z,2.59
2019-03-20T07:07:15.274Z,2.84
2019-03-20T07:08:12.720Z,2.81
2019-03-20T07:09:12.711Z,2.95
2019-03-20T07:10:12.700Z,3.07
2019-03-20T07:11:12.708Z,3.23
2019-03-20T07:12:12.705Z,3.36
2019-03-20T07:13:12.669Z,3.43
2019-03-20T07:14:13.236Z,3.57
2019-03-20T07:15:12.652Z,3.52
2019-03-20T07:16:12.632Z,3.60
2019-03-20T07:17:12.656Z,3.82
2019-03-20T07:18:12.614Z,3.88
2019-03-20T07:19:12.607Z,3.96
2019-03-20T07:20:12.593Z,4.08
2019-03-20T07:21:12.598Z,4.22
2019-03-20T07:22:12.607Z,4.36
2019-03-20T07:23:12.583Z,4.51
2019-03-20T07:24:12.554Z,4.59
2019-03-20T07:25:12.544Z,4.73
2019-03-20T07:26:12.544Z,4.77
2019-03-20T07:27:12.814Z,4.80
2019-03-20T07:28:12.514Z,4.94
2019-03-20T07:29:12.501Z,4.99
2019-03-20T07:30:12.502Z,5.09
2019-03-20T07:31:15.666Z,5.16
2019-03-20T07:32:12.491Z,5.19
2019-03-20T07:33:12.496Z,5.13
2019-03-20T07:34:12.459Z,5.28
2019-03-20T07:35:12.458Z,5.34
2019-03-20T07:36:12.438Z,5.37
2019-03-20T07:37:12.438Z,5.63
2019-03-20T07:38:12.440Z,5.71
2019-03-20T07:39:12.403Z,5.73
2019-03-20T07:40:12.403Z,5.91
2019-03-20T07:41:12.411Z,5.98
2019-03-20T07:42:12.399Z,6.10
2019-03-20T07:43:12.392Z,6.13
2019-03-20T07:44:12.358Z,6.03
2019-03-20T07:45:12.340Z,6.13
2019-03-20T07:46:12.336Z,6.11
2019-03-20T07:47:12.350Z,6.11
2019-03-20T07:48:21.488Z,6.38
2019-03-20T07:49:13.353Z,6.59
2019-03-20T07:50:12.360Z,6.79
2019-03-20T07:51:12.278Z,6.98
2019-03-20T07:52:12.279Z,6.94
2019-03-20T07:53:12.359Z,7.20
2019-03-20T07:54:12.278Z,7.38
2019-03-20T07:55:12.232Z,7.63
2019-03-20T07:56:12.228Z,7.78
2019-03-20T07:57:12.221Z,7.89
2019-03-20T07:58:12.255Z,8.00
2019-03-20T07:59:12.192Z,8.14
2019-03-20T08:00:12.883Z,7.92
2019-03-20T08:01:12.181Z,7.82
2019-03-20T08:02:12.173Z,7.79
2019-03-20T08:03:12.188Z,7.89
2019-03-20T08:04:12.137Z,8.02
2019-03-20T08:05:12.165Z,8.17
2019-03-20T08:06:12.118Z,8.47
2019-03-20T08:07:12.107Z,8.66
2019-03-20T08:08:12.138Z,8.51
2019-03-20T08:09:12.109Z,8.63
2019-03-20T08:10:12.074Z,8.84
2019-03-20T08:11:12.065Z,8.93
2019-03-20T08:12:12.096Z,8.87
2019-03-20T08:13:12.101Z,9.01
2019-03-20T08:14:12.042Z,8.96
2019-03-20T08:15:12.029Z,8.96
2019-03-20T08:16:12.023Z,8.86
2019-03-20T08:17:12.016Z,8.97
2019-03-20T08:18:12.000Z,8.72
2019-03-20T08:19:12.016Z,8.63
2019-03-20T08:20:11.977Z,8.75
2019-03-20T08:21:12.009Z,8.93
2019-03-20T08:22:11.981Z,9.24
2019-03-20T08:23:11.969Z,9.58
2019-03-20T08:24:11.938Z,9.97
2019-03-20T08:25:11.919Z,10.28
2019-03-20T08:26:11.908Z,10.44
2019-03-20T08:27:11.900Z,10.62
2019-03-20T08:28:11.919Z,10.56
2019-03-20T08:29:11.902Z,10.70
2019-03-20T08:30:13.736Z,10.96
2019-03-20T08:31:11.859Z,11.07
2019-03-20T08:32:11.858Z,11.20
2019-03-20T08:33:11.869Z,11.44
2019-03-20T08:34:11.828Z,11.47
2019-03-20T08:35:11.823Z,11.21
2019-03-20T08:36:11.823Z,10.83
2019-03-20T08:37:11.806Z,10.96
2019-03-20T08:38:18.177Z,11.21
2019-03-20T08:39:12.781Z,11.57
2019-03-20T08:40:11.758Z,11.65
2019-03-20T08:41:11.747Z,11.52
2019-03-20T08:42:11.746Z,11.43
2019-03-20T08:43:11.792Z,11.36
2019-03-20T08:44:11.733Z,11.20
2019-03-20T08:45:11.715Z,10.94
2019-03-20T08:46:11.696Z,10.84
2019-03-20T08:47:11.687Z,10.94
2019-03-20T08:48:11.692Z,10.71
2019-03-20T08:49:11.696Z,10.98
2019-03-20T08:50:11.668Z,11.32
2019-03-20T08:51:11.662Z,11.19
2019-03-20T08:52:11.642Z,11.20
2019-03-20T08:53:11.628Z,11.14
2019-03-20T08:54:11.644Z,10.92
2019-03-20T08:55:11.607Z,10.86
2019-03-20T08:56:11.720Z,10.73
2019-03-20T08:57:11.587Z,10.92
2019-03-20T08:58:11.576Z,10.88
2019-03-20T08:59:11.598Z,10.83
2019-03-20T09:00:11.564Z,10.43
2019-03-20T09:01:11.539Z,10.47
2019-03-20T09:02:11.533Z,10.74
2019-03-20T09:03:11.525Z,10.95
2019-03-20T09:04:11.579Z,11.28
2019-03-20T09:05:11.499Z,11.67
2019-03-20T09:06:11.610Z,11.83
2019-03-20T09:07:11.490Z,11.93
2019-03-20T09:08:11.473Z,12.16
2019-03-20T09:09:11.461Z,11.74
2019-03-20T09:10:11.483Z,11.82
2019-03-20T09:11:11.435Z,12.05
2019-03-20T09:12:11.472Z,12.29
2019-03-20T09:13:11.420Z,12.66
2019-03-20T09:14:11.407Z,13.03
2019-03-20T09:15:11.397Z,12.96
2019-03-20T09:16:11.415Z,13.18
2019-03-20T09:17:12.502Z,13.56
2019-03-20T09:18:11.370Z,13.59
2019-03-20T09:19:11.509Z,13.32
2019-03-20T09:20:11.342Z,13.14
2019-03-20T09:21:11.334Z,13.30
2019-03-20T09:22:11.356Z,13.36
2019-03-20T09:23:11.310Z,13.24
2019-03-20T09:24:11.300Z,13.07
2019-03-20T09:25:11.290Z,12.99
2019-03-20T09:26:11.278Z,13.07
2019-03-20T09:27:11.274Z,13.03
2019-03-20T09:28:11.297Z,12.99
2019-03-20T09:29:18.571Z,13.02
2019-03-20T09:30:12.242Z,13.09
2019-03-20T09:31:11.227Z,13.33
2019-03-20T09:32:11.272Z,13.61
2019-03-20T09:33:11.231Z,13.88
2019-03-20T09:34:11.220Z,14.19
2019-03-20T09:35:11.185Z,14.14
2019-03-20T09:36:11.196Z,13.95
2019-03-20T09:37:11.171Z,14.19
2019-03-20T09:38:11.152Z,14.62
2019-03-20T09:39:11.223Z,14.90
2019-03-20T09:40:11.128Z,14.99
2019-03-20T09:41:11.122Z,14.87
2019-03-20T09:42:11.115Z,14.72
2019-03-20T09:43:11.112Z,14.72
2019-03-20T09:44:11.093Z,14.84
2019-03-20T09:45:11.113Z,14.62
2019-03-20T09:46:11.067Z,14.81
2019-03-20T09:47:11.069Z,15.17
2019-03-20T09:48:11.054Z,15.52
2019-03-20T09:49:11.092Z,15.48
2019-03-20T09:50:11.023Z,15.51
2019-03-20T09:51:11.019Z,15.64
2019-03-20T09:52:11.013Z,15.41
2019-03-20T09:53:11.000Z,15.30
2019-03-20T09:54:11.747Z,15.23
2019-03-20T09:55:11.000Z,14.90
2019-03-20T09:56:10.975Z,15.23
2019-03-20T09:57:10.960Z,15.26
2019-03-20T09:58:11.980Z,15.23
2019-03-20T09:59:10.961Z,15.12
2019-03-20T10:00:10.925Z,14.52
2019-03-20T10:01:10.907Z,14.68
2019-03-20T10:02:10.911Z,15.19
2019-03-20T10:03:10.893Z,15.84
2019-03-20T10:04:10.890Z,16.00
2019-03-20T10:05:10.895Z,15.63
2019-03-20T10:06:10.857Z,16.04
2019-03-20T10:07:10.850Z,16.25
2019-03-20T10:08:10.849Z,16.01
2019-03-20T10:09:10.861Z,15.30
2019-03-20T10:10:10.811Z,15.15
2019-03-20T10:11:10.806Z,15.03
2019-03-20T10:12:10.799Z,15.43
2019-03-20T10:13:10.804Z,15.79
2019-03-20T10:14:10.803Z,16.11
2019-03-20T10:15:10.759Z,16.83
2019-03-20T10:16:10.767Z,16.85
2019-03-20T10:17:10.739Z,16.33
2019-03-20T10:18:10.737Z,15.79
2019-03-20T10:19:10.739Z,16.11
2019-03-20T10:20:11.119Z,15.78
2019-03-20T10:21:10.707Z,15.93
2019-03-20T10:22:10.691Z,15.82
2019-03-20T10:23:10.677Z,15.60
2019-03-20T10:24:10.802Z,15.28
2019-03-20T10:25:10.657Z,15.78
2019-03-20T10:26:10.652Z,16.37
2019-03-20T10:27:10.635Z,16.89
2019-03-20T10:28:10.653Z,16.56
2019-03-20T10:29:10.625Z,16.42
2019-03-20T10:30:10.633Z,16.27
2019-03-20T10:31:10.595Z,16.27
2019-03-20T10:32:10.586Z,16.16
2019-03-20T10:33:10.576Z,16.60
2019-03-20T10:34:10.577Z,16.73
2019-03-20T10:35:10.595Z,16.37
2019-03-20T10:36:10.546Z,16.50
2019-03-20T10:37:10.544Z,16.25
2019-03-20T10:38:10.533Z,16.62
2019-03-20T10:39:10.558Z,17.04
2019-03-20T10:40:10.544Z,16.77
2019-03-20T10:41:10.493Z,16.41
2019-03-20T10:42:10.493Z,16.55
2019-03-20T10:43:10.478Z,16.20
2019-03-20T10:44:10.465Z,15.93
2019-03-20T10:45:10.473Z,15.51
2019-03-20T10:46:10.474Z,15.41
2019-03-20T10:47:11.677Z,16.26
2019-03-20T10:48:10.435Z,16.18
2019-03-20T10:49:10.408Z,16.11
2019-03-20T10:50:10.433Z,16.52
2019-03-20T10:51:10.388Z,16.55
2019-03-20T10:52:10.372Z,17.18
2019-03-20T10:53:10.385Z,16.73
2019-03-20T10:54:10.365Z,17.41
2019-03-20T10:55:10.373Z,18.27
2019-03-20T10:56:10.332Z,18.84
2019-03-20T10:57:10.342Z,19.23
2019-03-20T10:58:10.314Z,19.02
2019-03-20T10:59:10.302Z,18.92
2019-03-20T11:00:10.809Z,18.25
2019-03-20T11:01:10.317Z,17.89
2019-03-20T11:02:10.275Z,18.00
2019-03-20T11:03:10.315Z,17.74
2019-03-20T11:04:10.261Z,17.43
2019-03-20T11:05:10.236Z,17.71
2019-03-20T11:06:10.240Z,18.00
2019-03-20T11:07:10.226Z,18.64
2019-03-20T11:08:12.858Z,18.24
2019-03-20T11:09:18.173Z,18.13
2019-03-20T11:10:11.206Z,17.94
2019-03-20T11:11:10.187Z,18.34
2019-03-20T11:12:10.170Z,18.76
2019-03-20T11:13:10.164Z,18.61
2019-03-20T11:14:10.144Z,18.59
2019-03-20T11:15:10.180Z,18.22
2019-03-20T11:16:10.172Z,18.22
2019-03-20T11:17:10.114Z,17.92
2019-03-20T11:18:10.118Z,17.91
2019-03-20T11:19:10.094Z,17.95
2019-03-20T11:20:10.308Z,17.97
2019-03-20T11:21:10.079Z,18.29
2019-03-20T11:22:18.299Z,18.74
2019-03-20T11:23:11.115Z,19.20
2019-03-20T11:24:10.047Z,19.33
2019-03-20T11:25:10.039Z,19.58
2019-03-20T11:26:10.060Z,19.94
2019-03-20T11:27:10.032Z,20.65
2019-03-20T11:28:10.008Z,20.81
2019-03-20T11:29:10.005Z,20.80
2019-03-20T11:30:09.979Z,20.59
2019-03-20T11:31:09.973Z,20.65
2019-03-20T11:32:09.986Z,20.02
2019-03-20T11:33:09.979Z,19.57
2019-03-20T11:34:09.948Z,19.60
2019-03-20T11:35:09.935Z,19.40
2019-03-20T11:36:09.922Z,19.21
2019-03-20T11:37:09.948Z,19.69
2019-03-20T11:38:09.911Z,19.95
2019-03-20T11:39:09.891Z,20.15
2019-03-20T11:40:09.904Z,20.16
2019-03-20T11:41:09.873Z,20.10
2019-03-20T11:42:09.864Z,20.39
2019-03-20T11:43:09.846Z,20.10
2019-03-20T11:44:09.841Z,20.27
2019-03-20T11:45:09.855Z,20.43
2019-03-20T11:46:09.821Z,20.42
2019-03-20T11:47:09.807Z,20.00
2019-03-20T11:48:09.796Z,19.58
2019-03-20T11:49:09.819Z,19.73
2019-03-20T11:50:09.775Z,20.00
2019-03-20T11:51:09.763Z,20.15
2019-03-20T11:52:10.283Z,20.59
2019-03-20T11:53:09.744Z,21.46
2019-03-20T11:54:09.731Z,21.14
2019-03-20T11:55:09.752Z,20.30
2019-03-20T11:56:09.722Z,19.36
2019-03-20T11:57:09.701Z,18.68
2019-03-20T11:58:09.694Z,18.84
2019-03-20T11:59:09.698Z,19.13
2019-03-20T12:00:09.700Z,19.73
2019-03-20T12:01:09.666Z,19.84
2019-03-20T12:02:09.664Z,20.00
2019-03-20T12:03:09.642Z,19.97
2019-03-20T12:04:09.628Z,20.59
2019-03-20T12:05:09.661Z,21.26
2019-03-20T12:06:09.612Z,21.66
2019-03-20T12:07:09.603Z,21.36
2019-03-20T12:08:09.589Z,20.79
2019-03-20T12:09:09.588Z,20.34
2019-03-20T12:10:09.597Z,20.21
2019-03-20T12:11:09.555Z,19.87
2019-03-20T12:12:09.549Z,19.88
2019-03-20T12:13:09.571Z,20.43
2019-03-20T12:14:09.525Z,21.06
2019-03-20T12:15:09.526Z,20.79
2019-03-20T12:16:09.511Z,20.64
2019-03-20T12:17:09.495Z,20.33
2019-03-20T12:18:09.521Z,20.50
2019-03-20T12:19:09.473Z,20.27
2019-03-20T12:20:09.464Z,19.72
2019-03-20T12:21:09.481Z,19.73
2019-03-20T12:22:09.445Z,19.84
2019-03-20T12:23:09.463Z,20.16
2019-03-20T12:24:09.425Z,20.34
2019-03-20T12:25:09.411Z,19.63
2019-03-20T12:26:09.418Z,19.54
2019-03-20T12:27:15.121Z,19.90
2019-03-20T12:28:10.414Z,20.41
2019-03-20T12:29:09.392Z,19.87
2019-03-20T12:30:09.361Z,19.88
2019-03-20T12:31:09.344Z,19.98
2019-03-20T12:32:09.345Z,20.33
2019-03-20T12:33:09.383Z,20.31
2019-03-20T12:34:09.342Z,20.28
2019-03-20T12:35:09.326Z,21.04
2019-03-20T12:36:09.306Z,21.39
2019-03-20T12:37:09.336Z,21.50
2019-03-20T12:38:14.877Z,21.24
2019-03-20T12:39:10.277Z,21.11
2019-03-20T12:40:09.263Z,20.64
2019-03-20T12:41:09.246Z,20.42
2019-03-20T12:42:09.243Z,20.56
2019-03-20T12:43:09.250Z,20.12
2019-03-20T12:44:09.211Z,19.60
2019-03-20T12:45:09.210Z,20.15
2019-03-20T12:46:09.205Z,20.13
2019-03-20T12:47:09.211Z,20.42
2019-03-20T12:48:09.211Z,19.95
2019-03-20T12:49:09.172Z,19.91
2019-03-20T12:50:09.808Z,20.30
2019-03-20T12:51:09.142Z,20.35
2019-03-20T12:52:09.134Z,20.50
2019-03-20T12:53:09.154Z,20.80
2019-03-20T12:54:09.113Z,20.20
2019-03-20T12:55:09.101Z,19.47
2019-03-20T12:56:09.093Z,18.77